Time;durP1;ratioP1;P1;durP2;ratioP2;P2;SDS_P1;SDS_P2;PMS_P1;PMS_P2;Temp;Humidity;BMP_temperature;BMP_pressure;BME280_temperature;BME280_humidity;BME280_pressure;Samples;Min_cycle;Max_cycle;Signal;HPM_P1;HPM_P2
2022/04/05 00:00:15;;;;;;;8.13;6.88;;;;;;;;;;4988414;28;20133;-86
2022/04/05 00:02:41;;;;;;;9.00;7.32;;;;;;;;;;4993027;28;20067;-86
2022/04/05 00:05:07;;;;;;;7.78;6.82;;;;;;;;;;4989564;28;20582;-87
2022/04/05 00:07:33;;;;;;;7.75;7.00;;;;;;;;;;4999854;28;20524;-87
2022/04/05 00:09:59;;;;;;;8.65;7.75;;;;;;;;;;4992287;28;20128;-87
2022/04/05 00:12:25;;;;;;;9.77;7.63;;;;;;;;;;4993272;28;20094;-84
2022/04/05 00:14:51;;;;;;;8.30;6.90;;;;;;;;;;4990686;28;20074;-85
2022/04/05 00:17:17;;;;;;;7.60;6.80;;;;;;;;;;5006029;28;20533;-85
2022/04/05 00:19:42;;;;;;;6.65;5.95;;;;;;;;;;4991434;28;20041;-85
2022/04/05 00:22:08;;;;;;;11.15;6.25;;;;;;;;;;4991279;28;20037;-85
2022/04/05 00:24:34;;;;;;;7.43;6.55;;;;;;;;;;4993036;28;20041;-85
2022/04/05 00:27:00;;;;;;;7.50;6.20;;;;;;;;;;4985536;28;20144;-85
2022/04/05 00:29:25;;;;;;;6.93;5.88;;;;;;;;;;4996446;28;20041;-88
2022/04/05 00:31:52;;;;;;;6.95;6.25;;;;;;;;;;4993998;28;20045;-87
2022/04/05 00:34:18;;;;;;;7.65;6.68;;;;;;;;;;4995118;28;20091;-87
2022/04/05 00:36:44;;;;;;;6.80;6.03;;;;;;;;;;4986443;28;20034;-87
2022/04/05 00:39:10;;;;;;;8.25;6.85;;;;;;;;;;4985727;28;20611;-86
2022/04/05 00:41:37;;;;;;;7.35;6.65;;;;;;;;;;4992213;28;20137;-85
2022/04/05 00:44:03;;;;;;;8.75;7.50;;;;;;;;;;4991317;28;20124;-87
2022/04/05 00:46:29;;;;;;;9.90;7.40;;;;;;;;;;4984734;28;20091;-87
2022/04/05 00:48:57;;;;;;;9.48;7.40;;;;;;;;;;4984717;28;20478;-87
2022/04/05 00:51:24;;;;;;;8.40;7.20;;;;;;;;;;4987800;28;20451;-89
2022/04/05 00:54:04;;;;;;;8.60;6.95;;;;;;;;;;5008675;28;20700;-89
2022/04/05 00:56:31;;;;;;;9.45;7.20;;;;;;;;;;5019430;28;20041;-89
2022/04/05 00:58:58;;;;;;;8.38;7.47;;;;;;;;;;4986432;28;20092;-89
2022/04/05 01:01:27;;;;;;;8.98;7.45;;;;;;;;;;4997957;28;20422;-90
2022/04/05 01:03:54;;;;;;;10.77;7.70;;;;;;;;;;4986114;28;20128;-90
2022/04/05 01:06:26;;;;;;;8.77;6.85;;;;;;;;;;4999676;28;20050;-89
2022/04/05 01:08:53;;;;;;;11.40;6.75;;;;;;;;;;4988544;28;20037;-89
2022/04/05 01:11:18;;;;;;;10.27;6.90;;;;;;;;;;4982455;28;20056;-90
2022/04/05 01:13:44;;;;;;;8.13;5.60;;;;;;;;;;5008612;28;20034;-89
2022/04/05 01:16:11;;;;;;;10.60;6.68;;;;;;;;;;5023333;28;20096;-89
2022/04/05 01:18:38;;;;;;;10.90;6.57;;;;;;;;;;5006940;28;20065;-90
2022/04/05 01:21:04;;;;;;;10.45;5.40;;;;;;;;;;4995617;28;20574;-90
2022/04/05 01:23:31;;;;;;;8.77;5.15;;;;;;;;;;5017137;28;20041;-89
2022/04/05 01:25:57;;;;;;;9.68;4.57;;;;;;;;;;5007242;28;20123;-89
2022/04/05 01:28:24;;;;;;;7.47;4.88;;;;;;;;;;4997281;28;20103;-89
2022/04/05 01:30:50;;;;;;;15.77;4.65;;;;;;;;;;4998447;28;20147;-90
2022/04/05 01:33:17;;;;;;;6.63;4.00;;;;;;;;;;5020045;28;20045;-90
2022/04/05 01:35:43;;;;;;;5.72;3.67;;;;;;;;;;5002126;28;20609;-90
2022/04/05 01:38:13;;;;;;;8.50;3.55;;;;;;;;;;4997300;28;20042;-89
2022/04/05 01:40:39;;;;;;;4.00;2.83;;;;;;;;;;4999025;28;20551;-89
2022/04/05 01:43:05;;;;;;;4.65;3.20;;;;;;;;;;4991647;28;20160;-90
2022/04/05 01:45:31;;;;;;;10.77;3.50;;;;;;;;;;5015542;28;20036;-90
2022/04/05 01:47:57;;;;;;;7.60;3.35;;;;;;;;;;5028639;28;20036;-90
2022/04/05 01:50:23;;;;;;;5.35;3.20;;;;;;;;;;5014247;28;20163;-90
2022/04/05 01:52:49;;;;;;;7.97;4.60;;;;;;;;;;5006252;28;20041;-90
2022/04/05 01:55:19;;;;;;;7.93;3.78;;;;;;;;;;4984349;28;20059;-90
2022/04/05 01:57:46;;;;;;;7.47;3.05;;;;;;;;;;4968929;28;20064;-89
2022/04/05 02:00:17;;;;;;;5.15;3.08;;;;;;;;;;4977383;28;20069;-90
2022/04/05 02:02:43;;;;;;;4.13;2.83;;;;;;;;;;5002735;28;20037;-89
2022/04/05 02:05:13;;;;;;;6.38;2.30;;;;;;;;;;5002345;28;20465;-88
2022/04/05 02:07:41;;;;;;;5.68;2.20;;;;;;;;;;4989940;28;20049;-90
2022/04/05 02:10:08;;;;;;;5.13;2.30;;;;;;;;;;4997336;28;20046;-91
2022/04/05 02:12:42;;;;;;;5.85;2.20;;;;;;;;;;4969176;28;20116;-90
2022/04/05 02:15:10;;;;;;;4.35;2.05;;;;;;;;;;5010371;28;20060;-89
2022/04/05 02:17:38;;;;;;;3.33;2.08;;;;;;;;;;5001332;28;20490;-89
2022/04/05 02:20:05;;;;;;;5.80;2.10;;;;;;;;;;5016678;28;20134;-89
2022/04/05 02:22:31;;;;;;;4.72;1.75;;;;;;;;;;5014175;28;20339;-90
2022/04/05 02:25:01;;;;;;;8.02;2.10;;;;;;;;;;5004573;28;20037;-88
2022/04/05 02:27:30;;;;;;;4.45;2.60;;;;;;;;;;5004558;28;20330;-89
2022/04/05 02:29:59;;;;;;;6.80;2.20;;;;;;;;;;4990557;28;20045;-89
2022/04/05 02:32:39;;;;;;;3.83;2.05;;;;;;;;;;4987486;28;20480;-89
2022/04/05 02:35:18;;;;;;;4.18;1.83;;;;;;;;;;5010047;28;20045;-89
2022/04/05 02:37:44;;;;;;;3.15;1.52;;;;;;;;;;5014295;28;20613;-88
2022/04/05 02:40:10;;;;;;;4.97;2.25;;;;;;;;;;5018993;28;20080;-88
2022/04/05 02:42:39;;;;;;;6.88;2.00;;;;;;;;;;4961268;28;20065;-89
2022/04/05 02:45:08;;;;;;;4.13;1.80;;;;;;;;;;5007775;28;20175;-89
2022/04/05 02:47:47;;;;;;;4.45;1.38;;;;;;;;;;4955404;28;20044;-90
2022/04/05 02:50:43;;;;;;;4.45;1.48;;;;;;;;;;5019448;28;20105;-90
2022/04/05 02:53:09;;;;;;;5.35;1.63;;;;;;;;;;5002729;28;20540;-87
2022/04/05 02:55:35;;;;;;;3.72;1.30;;;;;;;;;;5009828;28;20398;-89
2022/04/05 02:58:01;;;;;;;7.40;1.55;;;;;;;;;;5021507;28;20037;-89
2022/04/05 03:00:53;;;;;;;8.05;1.40;;;;;;;;;;4976707;28;20073;-89
2022/04/05 03:03:18;;;;;;;6.80;1.20;;;;;;;;;;4984319;28;20126;-87
2022/04/05 03:05:44;;;;;;;4.30;1.27;;;;;;;;;;4983614;28;20481;-88
2022/04/05 03:08:10;;;;;;;8.02;1.25;;;;;;;;;;4999667;28;20115;-87
2022/04/05 03:10:37;;;;;;;5.13;1.38;;;;;;;;;;4973640;28;20119;-89
2022/04/05 03:13:04;;;;;;;5.72;1.17;;;;;;;;;;4971462;28;20038;-87
2022/04/05 03:15:29;;;;;;;4.55;1.17;;;;;;;;;;4995390;28;20053;-88
2022/04/05 03:17:55;;;;;;;4.75;1.00;;;;;;;;;;4998588;28;20038;-88
2022/04/05 03:20:21;;;;;;;7.22;1.20;;;;;;;;;;4987676;28;20128;-88
2022/04/05 03:22:52;;;;;;;6.85;1.42;;;;;;;;;;5005635;28;20421;-88
2022/04/05 03:25:18;;;;;;;5.53;1.17;;;;;;;;;;5015559;28;20126;-88
2022/04/05 03:27:44;;;;;;;5.63;0.90;;;;;;;;;;4995951;28;20153;-88
2022/04/05 03:30:14;;;;;;;6.70;1.17;;;;;;;;;;5014218;28;20559;-88
2022/04/05 03:32:42;;;;;;;7.80;1.52;;;;;;;;;;4997628;28;20048;-87
2022/04/05 03:35:08;;;;;;;5.03;1.13;;;;;;;;;;4976676;28;20037;-87
2022/04/05 03:37:35;;;;;;;7.55;1.25;;;;;;;;;;4979018;28;20038;-88
2022/04/05 03:40:05;;;;;;;8.70;1.65;;;;;;;;;;4997270;28;20029;-88
2022/04/05 03:42:31;;;;;;;6.13;1.38;;;;;;;;;;5000186;28;20571;-88
2022/04/05 03:44:57;;;;;;;7.18;1.00;;;;;;;;;;4994581;28;20030;-88
2022/04/05 03:47:23;;;;;;;7.57;1.35;;;;;;;;;;4993788;28;20565;-87
2022/04/05 03:49:52;;;;;;;6.97;1.38;;;;;;;;;;4994771;28;20521;-87
2022/04/05 03:52:20;;;;;;;8.07;1.33;;;;;;;;;;5006399;28;20512;-87
2022/04/05 03:54:49;;;;;;;9.02;1.60;;;;;;;;;;4983766;28;20510;-87
2022/04/05 03:57:19;;;;;;;5.25;1.10;;;;;;;;;;4992450;28;20045;-87
2022/04/05 03:59:45;;;;;;;5.55;1.23;;;;;;;;;;4998197;28;20365;-87
2022/04/05 04:02:10;;;;;;;6.13;1.50;;;;;;;;;;5014499;28;20427;-87
2022/04/05 04:04:38;;;;;;;12.57;2.50;;;;;;;;;;5003409;28;20075;-87
2022/04/05 04:07:04;;;;;;;9.18;1.30;;;;;;;;;;5011567;28;20497;-87
2022/04/05 04:09:30;;;;;;;7.13;1.73;;;;;;;;;;5013792;28;21520;-87
2022/04/05 04:11:57;;;;;;;9.82;2.75;;;;;;;;;;4999678;28;20042;-85
2022/04/05 04:14:25;;;;;;;9.80;3.08;;;;;;;;;;5010515;28;20030;-87
2022/04/05 04:16:50;;;;;;;10.20;2.58;;;;;;;;;;5022404;28;20556;-87
2022/04/05 04:19:19;;;;;;;8.75;2.70;;;;;;;;;;4991634;28;20046;-89
2022/04/05 04:21:44;;;;;;;9.75;3.10;;;;;;;;;;5013981;28;20501;-89
2022/04/05 04:24:12;;;;;;;8.52;3.35;;;;;;;;;;4987018;28;20152;-88
2022/04/05 04:26:41;;;;;;;9.23;2.20;;;;;;;;;;5006078;28;20386;-85
2022/04/05 04:29:07;;;;;;;7.55;2.55;;;;;;;;;;5014954;28;20067;-88
2022/04/05 04:31:33;;;;;;;11.32;3.03;;;;;;;;;;5006777;28;20148;-87
2022/04/05 04:34:02;;;;;;;7.18;2.00;;;;;;;;;;5009621;28;20040;-87
2022/04/05 04:36:28;;;;;;;10.35;3.00;;;;;;;;;;5025004;28;20041;-88
2022/04/05 04:38:55;;;;;;;7.63;2.00;;;;;;;;;;5005471;28;20063;-87
2022/04/05 04:41:23;;;;;;;9.32;2.00;;;;;;;;;;5004825;28;20079;-87
2022/04/05 04:43:57;;;;;;;3.70;1.55;;;;;;;;;;5001932;28;20048;-87
2022/04/05 04:46:23;;;;;;;8.57;1.95;;;;;;;;;;5037063;28;20073;-87
2022/04/05 04:48:49;;;;;;;8.20;3.00;;;;;;;;;;4996415;28;20036;-87
2022/04/05 04:51:15;;;;;;;13.88;2.60;;;;;;;;;;4996104;28;20042;-87
2022/04/05 04:53:41;;;;;;;11.30;2.60;;;;;;;;;;5011964;28;20048;-88
2022/04/05 04:56:07;;;;;;;7.90;2.30;;;;;;;;;;5012895;28;20071;-88
2022/04/05 04:58:35;;;;;;;8.00;1.95;;;;;;;;;;4990020;28;20124;-89
2022/04/05 05:01:00;;;;;;;8.60;2.00;;;;;;;;;;5010285;28;20037;-88
2022/04/05 05:03:29;;;;;;;5.60;2.22;;;;;;;;;;4988492;28;20072;-88
2022/04/05 05:05:57;;;;;;;12.88;2.45;;;;;;;;;;5001245;28;20068;-87
2022/04/05 05:08:25;;;;;;;10.65;2.28;;;;;;;;;;4988096;28;20045;-89
2022/04/05 05:10:51;;;;;;;6.55;2.13;;;;;;;;;;4983399;28;20038;-88
2022/04/05 05:13:20;;;;;;;9.20;2.40;;;;;;;;;;4956668;28;20119;-87
2022/04/05 05:15:51;;;;;;;10.38;1.83;;;;;;;;;;4995001;28;20041;-88
2022/04/05 05:18:18;;;;;;;9.35;2.25;;;;;;;;;;4992888;28;20128;-88
2022/04/05 05:20:52;;;;;;;8.70;1.80;;;;;;;;;;4993116;28;20292;-87
2022/04/05 05:23:18;;;;;;;9.02;2.25;;;;;;;;;;5009351;28;20041;-86
2022/04/05 05:25:45;;;;;;;7.75;1.90;;;;;;;;;;5011421;28;20061;-87
2022/04/05 05:28:10;;;;;;;8.52;1.95;;;;;;;;;;5005002;28;20150;-87
2022/04/05 05:30:38;;;;;;;8.02;1.70;;;;;;;;;;4984506;28;20041;-87
2022/04/05 05:33:04;;;;;;;7.32;1.65;;;;;;;;;;5008997;28;20094;-86
2022/04/05 05:35:30;;;;;;;9.00;1.90;;;;;;;;;;5011510;28;20045;-86
2022/04/05 05:37:59;;;;;;;6.32;1.88;;;;;;;;;;4995029;28;20041;-86
2022/04/05 05:40:29;;;;;;;10.55;2.20;;;;;;;;;;4989485;28;20049;-86
2022/04/05 05:42:58;;;;;;;7.03;2.20;;;;;;;;;;4982444;28;20124;-86
2022/04/05 05:45:28;;;;;;;8.85;2.55;;;;;;;;;;5017114;28;20041;-86
2022/04/05 05:47:53;;;;;;;9.15;2.40;;;;;;;;;;4989300;28;20029;-86
2022/04/05 05:50:22;;;;;;;6.20;2.15;;;;;;;;;;4996130;28;20057;-84
2022/04/05 05:52:48;;;;;;;11.77;2.20;;;;;;;;;;5001324;28;20047;-86
2022/04/05 05:55:16;;;;;;;5.45;1.70;;;;;;;;;;5006869;28;20042;-86
2022/04/05 05:57:42;;;;;;;9.20;2.70;;;;;;;;;;5007022;28;20057;-86
2022/04/05 06:00:11;;;;;;;11.15;2.03;;;;;;;;;;5000040;28;20119;-86
2022/04/05 06:02:41;;;;;;;9.93;2.20;;;;;;;;;;5017634;28;20033;-86
2022/04/05 06:05:08;;;;;;;7.50;2.00;;;;;;;;;;5000903;28;20482;-87
2022/04/05 06:07:34;;;;;;;8.45;1.88;;;;;;;;;;5008120;28;20043;-87
2022/04/05 06:10:09;;;;;;;11.80;2.00;;;;;;;;;;5038268;28;20052;-86
2022/04/05 06:12:45;;;;;;;9.00;2.63;;;;;;;;;;5002986;28;20043;-87
2022/04/05 06:15:15;;;;;;;9.30;2.17;;;;;;;;;;5015690;28;20125;-87
2022/04/05 06:17:48;;;;;;;8.43;2.65;;;;;;;;;;4995255;28;20037;-87
2022/04/05 06:20:16;;;;;;;6.80;1.80;;;;;;;;;;4991249;28;20046;-87
2022/04/05 06:22:50;;;;;;;11.15;2.38;;;;;;;;;;4991442;28;20044;-87
2022/04/05 06:25:21;;;;;;;9.88;2.40;;;;;;;;;;4995793;28;20041;-87
2022/04/05 06:28:05;;;;;;;10.10;3.60;;;;;;;;;;4966478;28;20055;-87
2022/04/05 06:30:35;;;;;;;11.38;3.22;;;;;;;;;;4963196;28;20587;-87
2022/04/05 06:33:08;;;;;;;11.15;3.00;;;;;;;;;;5017948;28;20034;-87
2022/04/05 06:35:38;;;;;;;9.05;3.15;;;;;;;;;;4947387;28;20513;-87
2022/04/05 06:38:10;;;;;;;9.05;2.35;;;;;;;;;;4974846;28;20075;-85
2022/04/05 06:40:41;;;;;;;6.68;2.10;;;;;;;;;;4965916;28;20037;-86
2022/04/05 06:43:07;;;;;;;5.90;1.85;;;;;;;;;;5003872;28;20357;-86
2022/04/05 06:45:44;;;;;;;12.30;1.95;;;;;;;;;;4967532;28;20069;-87
2022/04/05 06:48:14;;;;;;;11.00;2.58;;;;;;;;;;5035902;28;20562;-88
2022/04/05 06:50:44;;;;;;;6.53;1.98;;;;;;;;;;4993880;28;20063;-87
2022/04/05 06:53:12;;;;;;;10.23;2.08;;;;;;;;;;5004586;28;20057;-87
2022/04/05 06:55:39;;;;;;;4.90;1.98;;;;;;;;;;5014889;28;20037;-87
2022/04/05 06:58:06;;;;;;;6.45;1.85;;;;;;;;;;5017011;28;20065;-87
2022/04/05 07:00:33;;;;;;;7.43;2.20;;;;;;;;;;4999362;28;20116;-87
2022/04/05 07:03:08;;;;;;;9.32;2.67;;;;;;;;;;4975181;28;20041;-87
2022/04/05 07:05:36;;;;;;;9.50;2.35;;;;;;;;;;4968283;28;20096;-87
2022/04/05 07:08:10;;;;;;;9.70;2.45;;;;;;;;;;4958330;28;20049;-87
2022/04/05 07:10:37;;;;;;;6.88;1.90;;;;;;;;;;4983204;28;20038;-87
2022/04/05 07:13:10;;;;;;;8.50;2.03;;;;;;;;;;5012296;28;20041;-87
2022/04/05 07:15:46;;;;;;;5.45;1.90;;;;;;;;;;5009082;28;20042;-88
2022/04/05 07:18:15;;;;;;;7.97;1.95;;;;;;;;;;5009559;28;20044;-87
2022/04/05 07:20:46;;;;;;;7.75;2.05;;;;;;;;;;4991258;28;20065;-87
2022/04/05 07:23:17;;;;;;;5.18;1.48;;;;;;;;;;4995774;28;20053;-87
2022/04/05 07:25:44;;;;;;;7.47;1.83;;;;;;;;;;5011249;28;20072;-87
2022/04/05 07:28:12;;;;;;;4.95;1.30;;;;;;;;;;4980374;28;20096;-86
2022/04/05 07:30:38;;;;;;;4.50;1.77;;;;;;;;;;5002090;28;20040;-87
2022/04/05 07:33:05;;;;;;;8.98;2.17;;;;;;;;;;4992368;28;20490;-87
2022/04/05 07:35:30;;;;;;;6.57;1.85;;;;;;;;;;5006945;28;20037;-87
2022/04/05 07:37:56;;;;;;;6.60;1.58;;;;;;;;;;5000645;28;20033;-87
2022/04/05 07:40:22;;;;;;;9.55;1.90;;;;;;;;;;4999175;28;20047;-87
2022/04/05 07:42:48;;;;;;;6.78;2.45;;;;;;;;;;5001938;28;20324;-88
2022/04/05 07:45:15;;;;;;;7.22;1.85;;;;;;;;;;4992914;28;20041;-87
2022/04/05 07:47:41;;;;;;;8.77;2.63;;;;;;;;;;5010281;28;20067;-87
2022/04/05 07:50:09;;;;;;;8.57;2.90;;;;;;;;;;5010548;28;20063;-87
2022/04/05 07:52:51;;;;;;;8.93;3.25;;;;;;;;;;5007817;28;20098;-87
2022/04/05 07:55:17;;;;;;;6.53;3.30;;;;;;;;;;4994737;28;20067;-87
2022/04/05 07:57:46;;;;;;;4.60;1.38;;;;;;;;;;4998107;28;20040;-87
2022/04/05 08:00:12;;;;;;;4.22;1.20;;;;;;;;;;4996043;28;20064;-87
2022/04/05 08:02:38;;;;;;;6.22;1.27;;;;;;;;;;4992730;28;20116;-87
2022/04/05 08:05:04;;;;;;;3.97;1.00;;;;;;;;;;5012011;28;20487;-87
2022/04/05 08:07:30;;;;;;;6.43;0.80;;;;;;;;;;4997824;28;20038;-87
2022/04/05 08:09:57;;;;;;;6.05;0.75;;;;;;;;;;5005211;28;20084;-87
2022/04/05 08:12:23;;;;;;;4.80;0.82;;;;;;;;;;5008196;28;20046;-87
2022/04/05 08:14:49;;;;;;;7.25;1.10;;;;;;;;;;5000802;28;20088;-87
2022/04/05 08:17:15;;;;;;;3.08;0.85;;;;;;;;;;5001857;28;20080;-87
2022/04/05 08:19:41;;;;;;;3.40;0.90;;;;;;;;;;5010302;28;20053;-86
2022/04/05 08:22:08;;;;;;;5.63;0.90;;;;;;;;;;4996469;28;20033;-87
2022/04/05 08:24:35;;;;;;;3.75;0.57;;;;;;;;;;4998605;28;20592;-87
2022/04/05 08:27:00;;;;;;;3.08;0.85;;;;;;;;;;4992651;28;20380;-87
2022/04/05 08:29:26;;;;;;;4.32;0.85;;;;;;;;;;5005820;28;20120;-87
2022/04/05 08:31:52;;;;;;;7.18;0.98;;;;;;;;;;4998682;28;20198;-87
2022/04/05 08:34:21;;;;;;;6.60;1.10;;;;;;;;;;4998186;28;20060;-87
2022/04/05 08:36:47;;;;;;;3.72;0.90;;;;;;;;;;5001001;28;20060;-87
2022/04/05 08:39:13;;;;;;;5.65;0.73;;;;;;;;;;5003693;28;20069;-86
2022/04/05 08:41:40;;;;;;;2.70;0.65;;;;;;;;;;4998662;28;20045;-86
2022/04/05 08:44:06;;;;;;;8.40;1.08;;;;;;;;;;5002173;28;20462;-87
2022/04/05 08:46:34;;;;;;;6.05;1.25;;;;;;;;;;5002027;28;20105;-86
2022/04/05 08:49:00;;;;;;;4.70;1.00;;;;;;;;;;5004878;28;20041;-87
2022/04/05 08:51:26;;;;;;;7.05;0.90;;;;;;;;;;5007610;28;20091;-87
2022/04/05 08:53:52;;;;;;;3.83;1.05;;;;;;;;;;4994772;28;20045;-87
2022/04/05 08:56:18;;;;;;;5.68;1.00;;;;;;;;;;4996487;28;20041;-87
2022/04/05 08:58:44;;;;;;;5.43;1.13;;;;;;;;;;5001735;28;20081;-87
2022/04/05 09:01:10;;;;;;;3.63;1.20;;;;;;;;;;4999067;28;20137;-86
2022/04/05 09:03:36;;;;;;;6.25;0.80;;;;;;;;;;5010168;28;20506;-87
2022/04/05 09:06:30;;;;;;;4.80;1.27;;;;;;;;;;5023110;28;20086;-86
2022/04/05 09:09:16;;;;;;;4.50;0.80;;;;;;;;;;4989628;28;20038;-87
2022/04/05 09:11:49;;;;;;;1.95;0.52;;;;;;;;;;4998769;28;20034;-85
2022/04/05 09:14:22;;;;;;;6.82;1.27;;;;;;;;;;4994145;28;20044;-88
2022/04/05 09:17:06;;;;;;;4.72;0.90;;;;;;;;;;4998006;28;20480;-88
2022/04/05 09:19:45;;;;;;;2.03;0.80;;;;;;;;;;5007910;28;20037;-87
2022/04/05 09:22:11;;;;;;;4.35;0.73;;;;;;;;;;4992198;28;20047;-85
2022/04/05 09:24:39;;;;;;;3.63;0.80;;;;;;;;;;4992804;28;20490;-86
2022/04/05 09:27:06;;;;;;;5.18;1.20;;;;;;;;;;4990876;28;20037;-86
2022/04/05 09:29:47;;;;;;;4.22;1.10;;;;;;;;;;4994339;28;20352;-88
2022/04/05 09:32:32;;;;;;;4.20;0.95;;;;;;;;;;4987674;28;20042;-89
2022/04/05 09:34:58;;;;;;;5.25;1.48;;;;;;;;;;4987941;28;20049;-88
2022/04/05 09:37:26;;;;;;;4.00;0.90;;;;;;;;;;5001089;28;20062;-88
2022/04/05 09:39:52;;;;;;;4.00;1.10;;;;;;;;;;5006749;28;20049;-87
2022/04/05 09:42:17;;;;;;;4.40;1.08;;;;;;;;;;5005651;28;20088;-88
2022/04/05 09:44:43;;;;;;;4.57;0.88;;;;;;;;;;5021416;28;20045;-88
2022/04/05 09:47:17;;;;;;;4.43;0.60;;;;;;;;;;5005821;28;20107;-89
2022/04/05 09:49:46;;;;;;;2.80;1.08;;;;;;;;;;5012662;28;20383;-88
2022/04/05 09:52:34;;;;;;;6.82;1.00;;;;;;;;;;5027274;28;20037;-89
2022/04/05 09:55:13;;;;;;;4.45;0.77;;;;;;;;;;5016848;28;20059;-89
2022/04/05 09:57:39;;;;;;;6.13;1.15;;;;;;;;;;5006541;28;20124;-89
2022/04/05 10:00:13;;;;;;;4.45;0.60;;;;;;;;;;4997845;28;20449;-89
2022/04/05 10:03:02;;;;;;;4.97;0.80;;;;;;;;;;5006497;28;20133;-89
2022/04/05 10:05:29;;;;;;;3.42;0.82;;;;;;;;;;4994650;28;20068;-89
2022/04/05 10:07:56;;;;;;;5.97;1.10;;;;;;;;;;4984153;28;20061;-89
2022/04/05 10:10:23;;;;;;;4.03;1.42;;;;;;;;;;5001500;28;20513;-90
2022/04/05 10:12:49;;;;;;;4.10;0.90;;;;;;;;;;4984523;28;20038;-90
2022/04/05 10:15:15;;;;;;;5.03;1.10;;;;;;;;;;4999448;28;20095;-90
2022/04/05 10:17:45;;;;;;;4.80;1.10;;;;;;;;;;4997367;28;20149;-88
2022/04/05 10:20:11;;;;;;;4.15;0.82;;;;;;;;;;5013311;28;20042;-89
2022/04/05 10:22:39;;;;;;;6.07;1.45;;;;;;;;;;4995978;28;20033;-89
2022/04/05 10:25:05;;;;;;;4.43;0.98;;;;;;;;;;4991176;28;20392;-90
2022/04/05 10:27:32;;;;;;;3.85;1.02;;;;;;;;;;5003305;28;20037;-89
2022/04/05 10:30:20;;;;;;;5.65;1.20;;;;;;;;;;5008545;28;20333;-90
2022/04/05 10:33:08;;;;;;;4.38;1.50;;;;;;;;;;5011286;28;20041;-90
2022/04/05 10:35:42;;;;;;;5.70;0.93;;;;;;;;;;5003038;28;20072;-90
2022/04/05 10:38:18;;;;;;;3.22;0.88;;;;;;;;;;5003186;28;20262;-88
2022/04/05 10:40:43;;;;;;;5.10;1.10;;;;;;;;;;5008837;28;20037;-89
2022/04/05 10:43:20;;;;;;;4.60;1.15;;;;;;;;;;5005636;28;20525;-90
2022/04/05 10:45:48;;;;;;;4.68;1.10;;;;;;;;;;5011263;28;20051;-89
2022/04/05 10:48:16;;;;;;;7.45;1.45;;;;;;;;;;5011891;28;20056;-90
2022/04/05 10:50:44;;;;;;;2.22;0.88;;;;;;;;;;5000120;28;20115;-89
2022/04/05 10:53:17;;;;;;;6.80;0.82;;;;;;;;;;4990076;28;20045;-90
2022/04/05 10:56:06;;;;;;;3.88;0.90;;;;;;;;;;5026681;28;20568;-90
2022/04/05 10:58:55;;;;;;;3.92;1.08;;;;;;;;;;5009736;28;20438;-89
2022/04/05 11:01:23;;;;;;;3.20;0.70;;;;;;;;;;5025191;28;20192;-89
2022/04/05 11:04:18;;;;;;;6.30;1.30;;;;;;;;;;5008959;28;20400;-88
2022/04/05 11:07:02;;;;;;;4.13;1.10;;;;;;;;;;5020035;28;20056;-91
2022/04/05 11:09:32;;;;;;;4.03;1.00;;;;;;;;;;5042105;28;20037;-91
2022/04/05 11:12:00;;;;;;;2.28;1.05;;;;;;;;;;4990914;28;20425;-91
2022/04/05 11:14:42;;;;;;;3.90;1.05;;;;;;;;;;4997262;28;20138;-89
2022/04/05 11:17:10;;;;;;;6.32;1.25;;;;;;;;;;4995227;28;20593;-91
2022/04/05 11:19:41;;;;;;;3.67;1.00;;;;;;;;;;5002938;28;20065;-89
2022/04/05 11:22:27;;;;;;;5.53;1.27;;;;;;;;;;5011294;28;20050;-89
2022/04/05 11:24:59;;;;;;;3.33;1.33;;;;;;;;;;5007058;28;20511;-91
2022/04/05 11:27:28;;;;;;;3.80;0.98;;;;;;;;;;5006103;28;20049;-89
2022/04/05 11:30:23;;;;;;;4.70;0.65;;;;;;;;;;5020361;28;20155;-90
2022/04/05 11:33:09;;;;;;;7.57;1.42;;;;;;;;;;5019290;28;20049;-89
2022/04/05 11:35:40;;;;;;;3.20;1.00;;;;;;;;;;5017010;28;21805;-89
2022/04/05 11:38:06;;;;;;;4.25;0.80;;;;;;;;;;5015162;28;20041;-89
2022/04/05 11:40:32;;;;;;;5.70;1.27;;;;;;;;;;5013464;28;20059;-89
2022/04/05 11:43:03;;;;;;;4.60;1.00;;;;;;;;;;5009359;28;20046;-89
2022/04/05 11:45:29;;;;;;;2.95;0.90;;;;;;;;;;5017467;28;20464;-88
2022/04/05 11:47:56;;;;;;;5.57;1.35;;;;;;;;;;5015454;28;20508;-89
2022/04/05 11:50:23;;;;;;;5.60;1.23;;;;;;;;;;5004088;28;20413;-89
2022/04/05 11:52:49;;;;;;;2.67;0.90;;;;;;;;;;5015456;28;20067;-90
2022/04/05 11:58:11;;;;;;;6.20;1.13;;;;;;;;;;5021889;28;20052;-90
2022/04/05 12:00:51;;;;;;;4.13;0.95;;;;;;;;;;5011950;28;20061;-90
2022/04/05 12:03:17;;;;;;;6.82;1.00;;;;;;;;;;5011928;28;20405;-89
2022/04/05 12:05:44;;;;;;;3.90;0.93;;;;;;;;;;5029307;28;20041;-89
2022/04/05 12:08:10;;;;;;;5.78;1.08;;;;;;;;;;5012904;28;20046;-89
2022/04/05 12:10:38;;;;;;;3.03;0.70;;;;;;;;;;5016040;28;20045;-89
2022/04/05 12:13:04;;;;;;;4.05;1.08;;;;;;;;;;5011878;28;20109;-90
2022/04/05 12:15:30;;;;;;;4.57;1.00;;;;;;;;;;4986598;28;20046;-90
2022/04/05 12:18:19;;;;;;;4.57;0.90;;;;;;;;;;5009670;28;20043;-90
2022/04/05 12:21:05;;;;;;;4.38;1.23;;;;;;;;;;5005952;28;20040;-89
2022/04/05 12:23:35;;;;;;;4.90;1.45;;;;;;;;;;5018215;28;20026;-90
2022/04/05 12:26:09;;;;;;;6.20;2.33;;;;;;;;;;5010078;28;20037;-90
2022/04/05 12:28:50;;;;;;;4.63;1.27;;;;;;;;;;5005356;28;20049;-90
2022/04/05 12:31:19;;;;;;;3.67;1.30;;;;;;;;;;5021155;28;20312;-90
2022/04/05 12:34:11;;;;;;;5.07;0.93;;;;;;;;;;4996309;28;20061;-90
2022/04/05 12:36:41;;;;;;;3.40;1.42;;;;;;;;;;5013825;28;20036;-90
2022/04/05 12:39:28;;;;;;;6.95;1.33;;;;;;;;;;5015227;28;20440;-89
2022/04/05 12:42:05;;;;;;;7.30;1.42;;;;;;;;;;5029952;28;20127;-89
2022/04/05 12:44:32;;;;;;;4.22;1.08;;;;;;;;;;5007543;28;20081;-90
2022/04/05 12:47:07;;;;;;;5.13;1.10;;;;;;;;;;5010901;28;20049;-90
2022/04/05 12:49:41;;;;;;;5.57;1.40;;;;;;;;;;5018081;28;20485;-90
2022/04/05 12:52:13;;;;;;;5.63;1.33;;;;;;;;;;5025348;28;20168;-89
2022/04/05 12:54:45;;;;;;;5.55;1.60;;;;;;;;;;5023794;28;20040;-90
2022/04/05 12:57:32;;;;;;;6.55;1.88;;;;;;;;;;5032345;28;20051;-90
2022/04/05 13:00:16;;;;;;;4.95;1.35;;;;;;;;;;5018556;28;20037;-90
2022/04/05 13:02:44;;;;;;;6.38;1.98;;;;;;;;;;5020743;28;20091;-90
2022/04/05 13:08:02;;;;;;;8.38;1.58;;;;;;;;;;5023067;28;20501;-89
2022/04/05 13:10:36;;;;;;;5.15;1.90;;;;;;;;;;5021835;28;20050;-90
2022/04/05 13:13:20;;;;;;;2.28;1.00;;;;;;;;;;5011730;28;20037;-90
2022/04/05 13:15:46;;;;;;;5.63;1.58;;;;;;;;;;5020191;28;20034;-90
2022/04/05 13:18:14;;;;;;;5.75;1.55;;;;;;;;;;5008210;28;20044;-90
2022/04/05 13:20:40;;;;;;;3.08;1.13;;;;;;;;;;5015486;28;20044;-90
2022/04/05 13:23:06;;;;;;;5.22;1.33;;;;;;;;;;5006204;28;20491;-90
2022/04/05 13:25:36;;;;;;;5.50;1.30;;;;;;;;;;4997939;28;20102;-90
2022/04/05 13:28:03;;;;;;;5.18;1.55;;;;;;;;;;4993646;28;20030;-90
2022/04/05 13:30:29;;;;;;;2.80;1.67;;;;;;;;;;5002614;28;20041;-91
2022/04/05 13:33:05;;;;;;;7.22;1.48;;;;;;;;;;5026333;28;20098;-90
2022/04/05 13:35:31;;;;;;;4.18;1.02;;;;;;;;;;5001777;28;20506;-90
2022/04/05 13:37:58;;;;;;;6.35;1.35;;;;;;;;;;5000315;28;20126;-90
2022/04/05 13:40:24;;;;;;;3.38;0.90;;;;;;;;;;5002491;28;20075;-90
2022/04/05 13:42:51;;;;;;;4.65;1.20;;;;;;;;;;5009887;28;20584;-91
2022/04/05 13:45:17;;;;;;;4.25;1.30;;;;;;;;;;5010911;28;20056;-90
2022/04/05 13:47:45;;;;;;;5.85;1.40;;;;;;;;;;4993130;28;20136;-90
2022/04/05 13:50:11;;;;;;;2.92;0.88;;;;;;;;;;5006168;28;20498;-91
2022/04/05 13:52:37;;;;;;;5.05;1.40;;;;;;;;;;5007699;28;20052;-89
2022/04/05 13:55:05;;;;;;;4.50;1.58;;;;;;;;;;5001065;28;20049;-90
2022/04/05 13:57:31;;;;;;;7.05;1.80;;;;;;;;;;5004340;28;20519;-89
2022/04/05 13:59:57;;;;;;;3.95;0.80;;;;;;;;;;5006372;28;20037;-90
2022/04/05 14:02:24;;;;;;;4.22;1.05;;;;;;;;;;5005190;28;20041;-90
2022/04/05 14:04:50;;;;;;;5.53;1.40;;;;;;;;;;5005521;28;20095;-90
2022/04/05 14:07:17;;;;;;;5.05;3.72;;;;;;;;;;5012869;28;20046;-90
2022/04/05 14:09:43;;;;;;;4.90;2.80;;;;;;;;;;4985650;28;20040;-90
2022/04/05 14:12:09;;;;;;;3.55;1.08;;;;;;;;;;4997468;28;20049;-91
2022/04/05 14:14:35;;;;;;;7.40;1.42;;;;;;;;;;5000319;28;20138;-91
2022/04/05 14:17:00;;;;;;;4.03;1.05;;;;;;;;;;5000529;28;20092;-91
2022/04/05 14:19:26;;;;;;;5.93;1.48;;;;;;;;;;5007947;28;20051;-91
2022/04/05 14:22:00;;;;;;;7.32;1.75;;;;;;;;;;4983175;28;20033;-87
2022/04/05 14:24:26;;;;;;;6.35;1.42;;;;;;;;;;5003627;28;20655;-87
2022/04/05 14:26:51;;;;;;;4.68;1.40;;;;;;;;;;4991080;28;20099;-86
2022/04/05 14:29:17;;;;;;;4.07;1.30;;;;;;;;;;5030434;28;20044;-87
2022/04/05 14:31:45;;;;;;;8.35;2.40;;;;;;;;;;5009103;28;20051;-87
2022/04/05 14:34:11;;;;;;;5.80;1.45;;;;;;;;;;5001673;28;20046;-87
2022/04/05 14:36:37;;;;;;;3.40;1.30;;;;;;;;;;5012202;28;20201;-84
2022/04/05 14:39:04;;;;;;;6.88;1.30;;;;;;;;;;5009622;28;20060;-87
2022/04/05 14:41:31;;;;;;;6.05;1.50;;;;;;;;;;5027258;28;20037;-85
2022/04/05 14:43:59;;;;;;;5.63;1.67;;;;;;;;;;4993803;28;20037;-85
2022/04/05 14:46:29;;;;;;;4.00;1.25;;;;;;;;;;4998866;28;20046;-87
2022/04/05 14:48:55;;;;;;;7.60;1.60;;;;;;;;;;5003545;28;20041;-85
2022/04/05 14:51:22;;;;;;;6.90;1.52;;;;;;;;;;5006313;28;20565;-85
2022/04/05 14:53:48;;;;;;;7.75;1.75;;;;;;;;;;5004794;28;20116;-85
2022/04/05 14:56:13;;;;;;;3.83;1.40;;;;;;;;;;5007582;28;20050;-85
2022/04/05 14:58:39;;;;;;;5.30;2.05;;;;;;;;;;5026958;28;20063;-85
2022/04/05 15:01:05;;;;;;;11.50;2.42;;;;;;;;;;5002257;28;20046;-85